Time;durP1;ratioP1;P1;durP2;ratioP2;P2;SDS_P1;SDS_P2;PMS_P1;PMS_P2;Temp;Humidity;BMP_temperature;BMP_pressure;BME280_temperature;BME280_humidity;BME280_pressure;Samples;Min_cycle;Max_cycle;Signal;HPM_P1;HPM_P2
2022/09/15 00:01:41;;;;;;;8.95;2.15;;;14.40;97.60;;;;;;5095955;27;20070;-58
2022/09/15 00:04:08;;;;;;;8.52;2.42;;;14.20;97.50;;;;;;5096426;27;20092;-59
2022/09/15 00:06:34;;;;;;;7.38;1.63;;;14.50;97.40;;;;;;5096223;27;20503;-58
2022/09/15 00:09:00;;;;;;;7.93;1.83;;;15.80;97.10;;;;;;5095210;27;20311;-58
2022/09/15 00:11:28;;;;;;;8.55;1.50;;;14.30;96.40;;;;;;5095368;27;20066;-59
2022/09/15 00:13:56;;;;;;;6.88;1.58;;;14.20;96.50;;;;;;5095358;27;20127;-58
2022/09/15 00:16:24;;;;;;;6.07;1.58;;;14.40;96.80;;;;;;5095608;27;20513;-59
2022/09/15 00:18:50;;;;;;;6.75;1.48;;;14.30;94.60;;;;;;5095205;28;20055;-58
2022/09/15 00:21:20;;;;;;;11.82;1.95;;;14.30;95.20;;;;;;5094700;27;20046;-59
2022/09/15 00:23:47;;;;;;;6.35;1.20;;;14.50;96.90;;;;;;5095454;27;20043;-58
2022/09/15 00:26:14;;;;;;;6.03;1.50;;;14.30;96.80;;;;;;5094235;28;20095;-59
2022/09/15 00:28:41;;;;;;;6.28;1.63;;;14.30;97.20;;;;;;5092702;27;20063;-58
2022/09/15 00:31:09;;;;;;;8.68;1.67;;;14.20;97.30;;;;;;5095098;27;20091;-58
2022/09/15 00:33:35;;;;;;;4.53;1.33;;;14.10;97.70;;;;;;5095435;27;20698;-58
2022/09/15 00:36:09;;;;;;;9.13;1.80;;;14.30;97.60;;;;;;5094941;27;20047;-58
2022/09/15 00:38:36;;;;;;;7.90;1.65;;;14.20;97.90;;;;;;5094841;27;20052;-59
2022/09/15 00:41:03;;;;;;;8.77;1.73;;;15.80;98.70;;;;;;5094203;27;20039;-58
2022/09/15 00:43:56;;;;;;;7.32;1.85;;;14.50;98.80;;;;;;5094664;27;20082;-59
2022/09/15 00:46:34;;;;;;;12.20;2.13;;;14.40;98.20;;;;;;5094607;27;20039;-58
2022/09/15 00:49:06;;;;;;;9.77;2.33;;;14.20;98.30;;;;;;5094761;28;20560;-59
2022/09/15 00:51:51;;;;;;;5.68;2.10;;;14.20;98.70;;;;;;5094807;28;20071;-58
2022/09/15 00:54:22;;;;;;;6.57;2.20;;;14.30;99.10;;;;;;5094768;27;20052;-58
2022/09/15 00:56:52;;;;;;;10.57;2.60;;;14.30;98.90;;;;;;5094248;27;20043;-58
2022/09/15 00:59:22;;;;;;;7.68;2.42;;;14.40;99.30;;;;;;5095037;28;20114;-59
2022/09/15 01:01:53;;;;;;;5.78;1.83;;;14.20;99.20;;;;;;5094554;27;20047;-58
2022/09/15 01:04:19;;;;;;;7.75;2.45;;;14.10;98.70;;;;;;5094623;27;20047;-59
2022/09/15 01:06:51;;;;;;;11.02;2.25;;;14.10;98.60;;;;;;5093257;27;20312;-58
2022/09/15 01:09:22;;;;;;;7.32;2.20;;;13.90;98.90;;;;;;5093843;27;20049;-59
2022/09/15 01:11:48;;;;;;;7.45;2.40;;;14.10;99.10;;;;;;5093884;27;20047;-59
2022/09/15 01:14:14;;;;;;;9.18;2.40;;;14.20;98.70;;;;;;5094953;27;20035;-59
2022/09/15 01:17:21;;;;;;;7.13;2.05;;;14.10;98.60;;;;;;5094972;27;20028;-58
2022/09/15 01:20:05;;;;;;;7.47;2.15;;;14.20;98.20;;;;;;5059600;28;20079;-59
2022/09/15 01:22:56;;;;;;;10.07;1.83;;;13.90;98.40;;;;;;5093369;27;20303;-58
2022/09/15 01:25:28;;;;;;;7.63;1.65;;;13.90;97.80;;;;;;5092769;27;20189;-58
2022/09/15 01:27:53;;;;;;;6.50;1.60;;;14.10;97.80;;;;;;5092924;27;20039;-59
2022/09/15 01:30:23;;;;;;;6.65;1.92;;;14.10;97.20;;;;;;5092248;28;20046;-58
2022/09/15 01:33:05;;;;;;;6.72;1.60;;;16.00;95.90;;;;;;5093396;28;20046;-58
2022/09/15 01:35:49;;;;;;;8.05;1.30;;;14.20;94.30;;;;;;5092403;27;20710;-58
2022/09/15 01:38:39;;;;;;;6.00;1.25;;;13.90;93.70;;;;;;5093094;27;20472;-58
2022/09/15 01:41:18;;;;;;;4.68;1.38;;;14.10;93.90;;;;;;5093220;27;20039;-57
2022/09/15 01:44:17;;;;;;;4.80;1.10;;;14.10;92.90;;;;;;5094396;27;20040;-58
2022/09/15 01:46:46;;;;;;;8.40;1.67;;;14.00;92.10;;;;;;5078899;27;20523;-58
2022/09/15 01:49:24;;;;;;;8.00;1.17;;;14.20;92.40;;;;;;5093068;28;20571;-58
2022/09/15 01:51:52;;;;;;;10.15;1.42;;;14.00;91.70;;;;;;5124420;27;20475;-58
2022/09/15 01:54:35;;;;;;;12.50;1.33;;;14.30;89.70;;;;;;5093107;27;20130;-58
2022/09/15 01:57:02;;;;;;;7.78;1.30;;;14.30;90.80;;;;;;5092676;28;20043;-58
2022/09/15 01:59:28;;;;;;;10.95;1.30;;;14.30;89.50;;;;;;5093744;27;20426;-58
2022/09/15 02:01:58;;;;;;;10.65;1.75;;;14.30;90.20;;;;;;5092945;27;20063;-58
2022/09/15 02:04:33;;;;;;;8.35;1.85;;;14.30;90.50;;;;;;5093270;27;20059;-59
2022/09/15 02:07:34;;;;;;;10.73;1.73;;;14.30;90.70;;;;;;5092982;28;20050;-58
2022/09/15 02:10:19;;;;;;;10.68;1.70;;;14.30;88.00;;;;;;5125808;27;20036;-59
2022/09/15 02:12:59;;;;;;;11.80;2.00;;;14.10;89.00;;;;;;5094269;27;20040;-58
2022/09/15 02:15:41;;;;;;;7.68;1.17;;;14.10;87.80;;;;;;5093625;27;20280;-58
2022/09/15 02:18:09;;;;;;;11.82;1.65;;;14.10;99.90;;;;;;5093352;28;20044;-59
2022/09/15 02:20:57;;;;;;;10.55;1.30;;;14.00;99.90;;;;;;5093592;28;20039;-58
2022/09/15 02:23:33;;;;;;;8.05;1.25;;;14.10;99.90;;;;;;5093727;28;20036;-58
2022/09/15 02:26:05;;;;;;;6.18;1.05;;;14.30;99.90;;;;;;5092177;28;20043;-58
2022/09/15 02:28:35;;;;;;;6.38;1.05;;;13.90;99.90;;;;;;5093058;28;20069;-58
2022/09/15 02:31:03;;;;;;;10.75;1.38;;;14.00;99.90;;;;;;5092271;28;20118;-59
2022/09/15 02:33:36;;;;;;;6.00;1.27;;;14.00;99.90;;;;;;5094129;28;20054;-59
2022/09/15 02:36:03;;;;;;;9.10;1.15;;;14.10;99.90;;;;;;5092274;28;20066;-58
2022/09/15 02:38:35;;;;;;;10.23;1.42;;;14.00;99.90;;;;;;5093496;28;20051;-58
2022/09/15 02:41:01;;;;;;;9.98;0.93;;;14.50;99.90;;;;;;5092806;28;20055;-59
2022/09/15 02:43:28;;;;;;;6.75;1.20;;;14.10;99.90;;;;;;5090737;28;20054;-59
2022/09/15 02:45:54;;;;;;;7.07;1.33;;;14.00;99.90;;;;;;5092981;28;20043;-57
2022/09/15 02:48:20;;;;;;;6.10;1.00;;;14.10;99.90;;;;;;5092908;28;20057;-59
2022/09/15 02:50:46;;;;;;;5.47;1.02;;;13.80;99.90;;;;;;5092929;28;20547;-58
2022/09/15 02:53:12;;;;;;;8.80;1.05;;;14.10;99.90;;;;;;5091772;28;20051;-58
2022/09/15 02:55:38;;;;;;;5.65;0.80;;;14.40;99.90;;;;;;5093015;28;20128;-58
2022/09/15 02:58:04;;;;;;;4.95;1.00;;;14.00;99.90;;;;;;5092346;28;20499;-58
2022/09/15 03:00:30;;;;;;;9.70;1.20;;;14.00;99.90;;;;;;5090905;28;20047;-59
2022/09/15 03:02:56;;;;;;;5.90;1.00;;;14.10;99.90;;;;;;5091608;27;20070;-58
2022/09/15 03:05:28;;;;;;;7.82;1.13;;;14.10;99.90;;;;;;5092951;28;20500;-59
2022/09/15 03:07:55;;;;;;;6.50;0.98;;;13.90;99.90;;;;;;5092186;28;20043;-58
2022/09/15 03:10:22;;;;;;;7.65;1.20;;;14.10;99.90;;;;;;5092172;28;20396;-58
2022/09/15 03:12:50;;;;;;;4.45;0.85;;;14.40;99.90;;;;;;5091726;28;20059;-58
2022/09/15 03:15:19;;;;;;;7.80;1.40;;;14.10;99.90;;;;;;5092603;28;20032;-58
2022/09/15 03:17:46;;;;;;;8.40;1.20;;;14.10;99.90;;;;;;5091971;28;20044;-58
2022/09/15 03:20:19;;;;;;;8.57;0.98;;;14.00;99.90;;;;;;5093107;28;20176;-59
2022/09/15 03:22:44;;;;;;;7.07;1.30;;;13.90;99.90;;;;;;5092076;28;20114;-58
2022/09/15 03:25:10;;;;;;;4.75;0.90;;;14.10;99.90;;;;;;5093984;28;20095;-58
2022/09/15 03:27:36;;;;;;;5.93;0.77;;;14.00;99.90;;;;;;5091856;28;20040;-59
2022/09/15 03:30:04;;;;;;;7.25;1.00;;;14.10;99.90;;;;;;5092422;28;20048;-57
2022/09/15 03:32:29;;;;;;;8.02;1.30;;;13.90;99.90;;;;;;5094037;27;20407;-58
2022/09/15 03:34:55;;;;;;;12.40;1.30;;;14.00;99.90;;;;;;5096238;28;20052;-59
2022/09/15 03:37:21;;;;;;;6.25;1.15;;;14.00;99.90;;;;;;5095011;27;20040;-58
2022/09/15 03:39:47;;;;;;;6.72;1.02;;;13.90;99.90;;;;;;5095895;27;20052;-58
2022/09/15 03:42:13;;;;;;;7.75;0.98;;;13.80;99.90;;;;;;5096448;28;20071;-58
2022/09/15 03:44:39;;;;;;;10.30;1.42;;;14.10;99.90;;;;;;5096926;27;20186;-59
2022/09/15 03:47:05;;;;;;;10.40;1.40;;;14.30;99.90;;;;;;5097162;27;20036;-59
2022/09/15 03:49:30;;;;;;;7.30;1.10;;;14.10;99.90;;;;;;5095120;27;20036;-58
2022/09/15 03:51:57;;;;;;;6.50;1.35;;;14.00;99.90;;;;;;5095167;27;20337;-58
2022/09/15 03:54:24;;;;;;;10.90;1.33;;;13.90;99.90;;;;;;5096387;27;20115;-58
2022/09/15 03:56:50;;;;;;;9.23;1.02;;;16.40;99.90;;;;;;5095841;27;20480;-59
2022/09/15 03:59:20;;;;;;;10.57;1.52;;;13.90;99.90;;;;;;5095452;27;20044;-58
2022/09/15 04:01:47;;;;;;;7.40;1.02;;;14.60;99.90;;;;;;5094799;27;20057;-59
2022/09/15 04:04:13;;;;;;;8.30;1.35;;;13.80;99.90;;;;;;5096633;27;20721;-57
2022/09/15 04:06:40;;;;;;;9.18;1.08;;;14.00;99.90;;;;;;5095668;27;20857;-59
2022/09/15 04:09:06;;;;;;;6.78;1.42;;;13.90;99.90;;;;;;5096398;28;21140;-59
2022/09/15 04:11:32;;;;;;;5.45;1.17;;;13.90;99.90;;;;;;5095491;27;20112;-59
2022/09/15 04:13:58;;;;;;;6.22;1.17;;;13.90;99.90;;;;;;5093668;27;20054;-59
2022/09/15 04:16:26;;;;;;;10.85;1.90;;;13.90;99.90;;;;;;5096606;27;20748;-58
2022/09/15 04:18:54;;;;;;;9.38;2.05;;;13.80;99.90;;;;;;5095500;27;20126;-59
2022/09/15 04:21:21;;;;;;;13.05;2.22;;;14.00;99.90;;;;;;5095503;28;21368;-59
2022/09/15 04:23:47;;;;;;;6.47;1.05;;;14.00;99.90;;;;;;5094918;27;20036;-59
2022/09/15 04:26:20;;;;;;;6.82;1.30;;;13.80;99.90;;;;;;5094578;28;20146;-59
2022/09/15 04:28:46;;;;;;;7.70;1.15;;;13.80;99.90;;;;;;5094589;27;20074;-59
2022/09/15 04:31:14;;;;;;;6.07;1.23;;;14.00;99.90;;;;;;5095939;27;20122;-59
2022/09/15 04:33:41;;;;;;;7.30;1.27;;;14.00;99.90;;;;;;5095019;28;20139;-58
2022/09/15 04:36:19;;;;;;;7.53;1.20;;;13.80;99.90;;;;;;5096438;27;20508;-58
2022/09/15 04:38:46;;;;;;;11.07;1.20;;;13.90;99.90;;;;;;5094472;27;20100;-58
2022/09/15 04:41:13;;;;;;;7.75;1.45;;;13.90;99.90;;;;;;5096460;28;20047;-59
2022/09/15 04:43:40;;;;;;;9.70;1.42;;;13.70;99.90;;;;;;5095475;27;20047;-59
2022/09/15 04:46:06;;;;;;;8.38;1.30;;;13.80;99.90;;;;;;5096860;27;20419;-59
2022/09/15 04:48:32;;;;;;;10.40;1.42;;;13.90;99.90;;;;;;5095005;27;20071;-59
2022/09/15 04:51:06;;;;;;;10.48;1.98;;;14.00;99.90;;;;;;5094531;28;20408;-59
2022/09/15 04:53:31;;;;;;;9.65;1.13;;;13.70;99.90;;;;;;5094884;27;20071;-59
2022/09/15 04:56:05;;;;;;;12.95;1.63;;;13.80;99.90;;;;;;5093761;27;20409;-59
2022/09/15 04:58:35;;;;;;;11.35;1.60;;;13.90;99.90;;;;;;5095322;27;20063;-59
2022/09/15 05:01:06;;;;;;;14.20;1.80;;;13.70;99.90;;;;;;5095334;27;20040;-59
2022/09/15 05:03:36;;;;;;;12.73;1.47;;;13.90;99.90;;;;;;5094227;27;20124;-59
2022/09/15 05:06:02;;;;;;;11.70;1.45;;;13.90;99.90;;;;;;5094085;27;20043;-60
2022/09/15 05:08:28;;;;;;;7.82;1.25;;;13.70;99.90;;;;;;5093582;28;20622;-59
2022/09/15 05:11:02;;;;;;;7.32;1.50;;;13.80;99.90;;;;;;5092728;27;20145;-60
2022/09/15 05:13:28;;;;;;;5.35;1.15;;;13.80;99.90;;;;;;5093385;28;20044;-59
2022/09/15 05:15:54;;;;;;;9.35;1.10;;;13.60;99.90;;;;;;5094543;27;20039;-59
2022/09/15 05:18:20;;;;;;;7.60;1.55;;;13.70;99.90;;;;;;5093408;27;20114;-58
2022/09/15 05:20:46;;;;;;;7.95;1.40;;;13.70;99.90;;;;;;5093942;27;20031;-60
2022/09/15 05:23:12;;;;;;;7.00;1.17;;;13.50;99.90;;;;;;5093107;27;20305;-59
2022/09/15 05:25:38;;;;;;;5.32;1.00;;;13.40;99.90;;;;;;5092541;28;20407;-59
2022/09/15 05:28:06;;;;;;;7.50;1.30;;;14.00;99.90;;;;;;5093444;27;20078;-59
2022/09/15 05:30:32;;;;;;;7.85;1.20;;;13.60;99.90;;;;;;5093247;27;20130;-59
2022/09/15 05:32:58;;;;;;;8.38;1.67;;;13.60;99.90;;;;;;5092518;28;20514;-59
2022/09/15 05:35:24;;;;;;;7.70;1.23;;;13.50;99.90;;;;;;5092638;27;20047;-59
2022/09/15 05:37:49;;;;;;;6.85;1.20;;;13.50;99.90;;;;;;5093323;27;20051;-60
2022/09/15 05:40:15;;;;;;;9.85;1.17;;;13.50;99.90;;;;;;5092514;27;20058;-58
2022/09/15 05:42:41;;;;;;;9.57;1.33;;;13.40;99.90;;;;;;5091985;28;20040;-60
2022/09/15 05:45:07;;;;;;;6.63;1.10;;;13.30;99.90;;;;;;5093376;27;20204;-59
2022/09/15 05:47:33;;;;;;;7.60;1.10;;;13.40;99.90;;;;;;5094988;28;20066;-59
2022/09/15 05:49:58;;;;;;;10.00;1.30;;;13.60;99.90;;;;;;5094404;27;20139;-59
2022/09/15 05:52:24;;;;;;;8.80;1.45;;;13.50;99.90;;;;;;5092779;28;20098;-59
2022/09/15 05:54:50;;;;;;;8.68;1.38;;;13.50;99.90;;;;;;5093198;28;20048;-59
2022/09/15 05:57:15;;;;;;;9.23;1.63;;;13.40;99.90;;;;;;5095046;27;20055;-58
2022/09/15 05:59:42;;;;;;;9.40;1.30;;;13.80;99.90;;;;;;5093258;27;20134;-59
2022/09/15 06:02:10;;;;;;;9.65;1.30;;;13.50;99.90;;;;;;5093249;27;20130;-58
2022/09/15 06:04:36;;;;;;;4.88;1.27;;;13.80;99.90;;;;;;5092773;27;20088;-57
2022/09/15 06:07:01;;;;;;;7.75;1.23;;;14.80;99.90;;;;;;5094275;28;20035;-58
2022/09/15 06:09:27;;;;;;;7.55;1.00;;;13.80;99.90;;;;;;5093350;28;20437;-59
2022/09/15 06:11:53;;;;;;;9.20;1.60;;;13.80;99.90;;;;;;5092740;28;20043;-59
2022/09/15 06:14:19;;;;;;;8.85;1.58;;;13.80;99.90;;;;;;5091788;28;20062;-58
2022/09/15 06:16:45;;;;;;;4.88;1.02;;;14.00;99.90;;;;;;5094986;28;20062;-59
2022/09/15 06:19:10;;;;;;;11.65;1.30;;;13.90;99.90;;;;;;5092827;27;20112;-58
2022/09/15 06:21:36;;;;;;;7.03;0.90;;;14.00;99.90;;;;;;5092824;28;20049;-59
2022/09/15 06:24:05;;;;;;;12.00;1.77;;;14.10;99.90;;;;;;5093539;27;20044;-62
2022/09/15 06:26:31;;;;;;;11.10;1.60;;;14.20;99.90;;;;;;5093581;27;20039;-58
2022/09/15 06:28:59;;;;;;;9.52;1.20;;;14.10;99.90;;;;;;5091013;27;20051;-58
2022/09/15 06:31:27;;;;;;;10.40;1.33;;;14.20;99.90;;;;;;5092677;27;20447;-58
2022/09/15 06:33:54;;;;;;;8.43;1.27;;;14.20;99.90;;;;;;5092354;28;20739;-59
2022/09/15 06:36:22;;;;;;;7.75;2.20;;;14.10;99.90;;;;;;5090870;28;20036;-58
2022/09/15 06:38:48;;;;;;;11.90;1.30;;;14.40;99.90;;;;;;5091850;28;20035;-58
2022/09/15 06:41:14;;;;;;;6.63;1.55;;;14.50;99.90;;;;;;5091783;27;20450;-58
2022/09/15 06:43:41;;;;;;;10.43;2.08;;;14.40;99.90;;;;;;5091950;28;20035;-58
2022/09/15 06:46:21;;;;;;;6.65;1.63;;;14.50;99.90;;;;;;5092460;28;20036;-59
2022/09/15 06:48:48;;;;;;;6.35;1.30;;;14.50;99.90;;;;;;5093371;28;20039;-59
2022/09/15 06:51:16;;;;;;;10.90;1.40;;;14.50;99.90;;;;;;5091950;28;20361;-59
2022/09/15 06:53:42;;;;;;;9.23;1.00;;;14.70;99.90;;;;;;5091559;28;20055;-58
2022/09/15 06:56:11;;;;;;;9.73;0.95;;;14.70;99.90;;;;;;5092077;28;20044;-59
2022/09/15 06:58:39;;;;;;;7.47;1.00;;;14.60;99.90;;;;;;5092179;28;21261;-57
2022/09/15 07:01:10;;;;;;;7.40;1.38;;;15.60;99.90;;;;;;5092625;28;20521;-58
2022/09/15 07:03:37;;;;;;;8.02;1.30;;;14.90;99.90;;;;;;5093098;27;20085;-59
2022/09/15 07:06:05;;;;;;;7.88;1.35;;;14.80;99.90;;;;;;5094020;28;20516;-60
2022/09/15 07:08:30;;;;;;;7.03;1.30;;;14.70;99.90;;;;;;5096224;27;20063;-59
2022/09/15 07:10:57;;;;;;;13.18;2.45;;;14.80;99.90;;;;;;5096288;28;20134;-59
2022/09/15 07:13:23;;;;;;;8.82;1.17;;;15.00;99.90;;;;;;5096407;28;20156;-58
2022/09/15 07:15:59;;;;;;;8.23;1.17;;;14.90;99.90;;;;;;5096779;27;20065;-58
2022/09/15 07:18:25;;;;;;;5.47;0.93;;;15.20;99.90;;;;;;5097559;27;20059;-59
2022/09/15 07:20:56;;;;;;;4.70;1.00;;;15.00;99.90;;;;;;5097408;28;20395;-59
2022/09/15 07:23:22;;;;;;;5.65;0.90;;;15.00;99.90;;;;;;5096553;27;20227;-60
2022/09/15 07:25:48;;;;;;;5.30;0.95;;;15.20;99.90;;;;;;5096913;27;20040;-59
2022/09/15 07:28:16;;;;;;;5.15;0.70;;;15.30;99.90;;;;;;5096885;27;20044;-57
2022/09/15 07:30:43;;;;;;;8.55;1.13;;;15.40;99.90;;;;;;5095878;27;20573;-58
2022/09/15 07:33:11;;;;;;;6.97;0.90;;;15.70;99.90;;;;;;5096302;27;20601;-58
2022/09/15 07:35:43;;;;;;;3.85;0.60;;;15.80;99.90;;;;;;5096807;27;20611;-59
2022/09/15 07:38:09;;;;;;;4.03;0.73;;;16.10;99.90;;;;;;5096431;27;21384;-58
2022/09/15 07:40:37;;;;;;;4.68;0.80;;;16.40;99.90;;;;;;5098221;27;20403;-58
2022/09/15 07:43:03;;;;;;;6.25;0.80;;;16.50;99.90;;;;;;5096829;27;20185;-58
2022/09/15 07:45:30;;;;;;;5.93;1.08;;;16.40;99.90;;;;;;5096390;27;20036;-58
2022/09/15 07:47:55;;;;;;;4.45;0.80;;;16.50;99.90;;;;;;5097066;27;20391;-58
2022/09/15 07:50:21;;;;;;;3.78;0.80;;;14.70;99.90;;;;;;5096152;27;20556;-59
2022/09/15 07:52:47;;;;;;;6.20;1.10;;;16.40;99.90;;;;;;5096454;27;20070;-59
2022/09/15 07:55:13;;;;;;;5.72;0.90;;;16.10;99.90;;;;;;5095825;27;20420;-58
2022/09/15 07:57:39;;;;;;;8.00;1.10;;;16.10;99.90;;;;;;5095079;28;20070;-58
2022/09/15 08:00:05;;;;;;;6.38;0.88;;;16.00;99.90;;;;;;5096020;28;20131;-58
2022/09/15 08:02:31;;;;;;;9.20;1.00;;;15.90;99.90;;;;;;5096126;27;20116;-58
2022/09/15 08:04:57;;;;;;;6.70;0.82;;;15.80;99.90;;;;;;5095467;27;20047;-59
2022/09/15 08:07:23;;;;;;;6.55;1.10;;;16.00;99.90;;;;;;5093527;27;20884;-58
2022/09/15 08:09:49;;;;;;;6.40;1.20;;;16.10;99.90;;;;;;5096870;27;20040;-58
2022/09/15 08:12:15;;;;;;;6.50;0.98;;;18.40;99.90;;;;;;5095684;27;20721;-58
2022/09/15 08:14:41;;;;;;;9.27;1.58;;;16.60;99.90;;;;;;5095049;28;20122;-58
2022/09/15 08:17:07;;;;;;;4.85;1.00;;;17.00;99.90;;;;;;5095753;28;20046;-59
2022/09/15 08:19:34;;;;;;;4.70;1.00;;;17.10;99.90;;;;;;5095618;27;20353;-59
2022/09/15 08:22:01;;;;;;;5.55;1.02;;;17.30;99.90;;;;;;5095996;27;20035;-58
2022/09/15 08:24:27;;;;;;;10.68;1.55;;;19.20;99.90;;;;;;5095338;27;20084;-58
2022/09/15 08:26:53;;;;;;;7.22;1.23;;;17.30;99.90;;;;;;5095624;27;20124;-58
2022/09/15 08:29:20;;;;;;;4.65;0.80;;;17.30;99.90;;;;;;5095542;28;20039;-57
2022/09/15 08:31:47;;;;;;;13.23;1.50;;;17.30;99.90;;;;;;5096680;27;20132;-59
2022/09/15 08:34:14;;;;;;;12.23;1.23;;;17.20;99.90;;;;;;5095478;27;20040;-61
2022/09/15 08:36:40;;;;;;;6.88;1.42;;;17.00;99.90;;;;;;5096193;27;20047;-58
2022/09/15 08:39:06;;;;;;;7.22;1.02;;;17.00;99.90;;;;;;5093863;27;20427;-58
2022/09/15 08:41:38;;;;;;;14.02;1.60;;;16.70;99.90;;;;;;5096551;27;20523;-59
2022/09/15 08:44:04;;;;;;;9.48;1.30;;;16.60;99.90;;;;;;5094932;27;20046;-59
2022/09/15 08:46:40;;;;;;;8.88;1.00;;;16.60;99.90;;;;;;5095736;27;20047;-58
2022/09/15 08:49:16;;;;;;;11.38;1.67;;;16.60;99.90;;;;;;5095897;27;20413;-58
2022/09/15 08:51:48;;;;;;;7.15;1.15;;;16.60;99.90;;;;;;5093695;27;20039;-59
2022/09/15 08:54:24;;;;;;;8.52;1.10;;;16.50;99.90;;;;;;5095364;27;20054;-58
2022/09/15 08:56:50;;;;;;;5.25;1.05;;;16.70;99.90;;;;;;5094981;27;20161;-59
2022/09/15 08:59:18;;;;;;;6.55;0.82;;;16.70;99.90;;;;;;5093709;28;20055;-58
2022/09/15 09:02:16;;;;;;;6.32;1.17;;;17.10;99.90;;;;;;5094104;27;20149;-58
2022/09/15 09:05:01;;;;;;;5.30;1.20;;;17.40;99.90;;;;;;5094820;28;20035;-57
2022/09/15 09:07:59;;;;;;;4.75;0.88;;;17.60;99.90;;;;;;5094055;27;20039;-57
2022/09/15 09:10:34;;;;;;;4.28;1.00;;;17.50;99.90;;;;;;5094344;27;20032;-58
2022/09/15 09:13:15;;;;;;;3.95;1.05;;;17.60;99.90;;;;;;5093859;27;20415;-58
2022/09/15 09:16:35;;;;;;;4.20;1.15;;;17.50;99.90;;;;;;5094790;27;20073;-58
2022/09/15 09:19:32;;;;;;;7.00;0.93;;;17.40;99.90;;;;;;5050959;28;20037;-58
2022/09/15 09:22:16;;;;;;;5.72;0.70;;;17.40;99.90;;;;;;5050547;28;20113;-58
2022/09/15 09:24:45;;;;;;;5.65;0.77;;;17.30;99.90;;;;;;5084234;27;20131;-58
2022/09/15 09:27:18;;;;;;;7.63;0.85;;;17.20;99.90;;;;;;5093703;27;20075;-57
2022/09/15 09:29:49;;;;;;;5.00;1.08;;;17.30;99.90;;;;;;5091499;27;20531;-58
2022/09/15 09:32:26;;;;;;;5.60;0.80;;;17.10;99.90;;;;;;5093484;27;20260;-58
2022/09/15 09:35:11;;;;;;;5.47;0.80;;;17.10;99.90;;;;;;5095230;27;20043;-58
2022/09/15 09:37:37;;;;;;;2.35;0.63;;;16.80;99.90;;;;;;5095619;27;20051;-59
2022/09/15 09:40:03;;;;;;;5.20;0.93;;;16.70;99.90;;;;;;5094609;27;20043;-60
2022/09/15 09:42:31;;;;;;;2.85;0.75;;;16.70;99.90;;;;;;5092712;27;20036;-58
2022/09/15 09:44:57;;;;;;;5.82;0.82;;;16.50;99.90;;;;;;5094429;27;20088;-58
2022/09/15 09:47:30;;;;;;;6.95;1.10;;;16.40;99.90;;;;;;5093840;28;20124;-59
2022/09/15 09:49:55;;;;;;;4.60;1.00;;;16.80;99.90;;;;;;5093662;27;20036;-58
2022/09/15 09:52:34;;;;;;;4.18;0.93;;;16.70;99.90;;;;;;5094754;27;20052;-58
2022/09/15 09:55:02;;;;;;;5.63;0.90;;;16.90;99.90;;;;;;5093788;27;20385;-58
2022/09/15 09:57:30;;;;;;;6.32;1.17;;;17.30;99.90;;;;;;5093517;27;20046;-58
2022/09/15 09:59:56;;;;;;;7.22;1.08;;;17.50;99.90;;;;;;5094206;27;20078;-58
2022/09/15 10:02:26;;;;;;;7.90;1.23;;;19.50;99.90;;;;;;5092323;28;20043;-58
2022/09/15 10:05:18;;;;;;;8.10;1.20;;;19.20;99.90;;;;;;5092827;27;20039;-59
2022/09/15 10:07:45;;;;;;;5.57;1.00;;;17.60;99.90;;;;;;5093463;27;20111;-59
2022/09/15 10:10:23;;;;;;;5.40;0.98;;;17.90;99.90;;;;;;5091956;28;20134;-59
2022/09/15 10:12:53;;;;;;;6.95;1.10;;;18.10;99.90;;;;;;5092801;28;20118;-58
2022/09/15 10:15:32;;;;;;;3.65;0.80;;;18.30;99.90;;;;;;5093742;27;20400;-59
2022/09/15 10:17:59;;;;;;;6.63;1.10;;;18.40;99.90;;;;;;5093719;28;20644;-58
2022/09/15 10:20:34;;;;;;;7.55;1.17;;;18.50;99.90;;;;;;5092283;27;21113;-58
2022/09/15 10:23:22;;;;;;;6.05;0.80;;;18.40;99.90;;;;;;5092789;28;20047;-57
2022/09/15 10:25:48;;;;;;;5.70;1.23;;;18.10;99.90;;;;;;5091804;28;20459;-58
2022/09/15 10:28:15;;;;;;;7.38;1.23;;;17.80;99.90;;;;;;5092297;28;20492;-58
2022/09/15 10:31:09;;;;;;;6.38;1.13;;;17.40;99.90;;;;;;5091819;27;20048;-58
2022/09/15 10:33:46;;;;;;;6.03;0.90;;;17.00;99.90;;;;;;5093351;28;20054;-58
2022/09/15 10:36:28;;;;;;;3.78;1.02;;;16.80;99.90;;;;;;5091821;27;20463;-57
2022/09/15 10:39:00;;;;;;;6.88;1.05;;;16.60;99.90;;;;;;5092766;28;20105;-58
2022/09/15 10:41:34;;;;;;;3.63;0.88;;;16.50;99.90;;;;;;5092760;28;20043;-57
2022/09/15 10:44:25;;;;;;;7.50;1.15;;;16.60;99.90;;;;;;5092328;28;20931;-58
2022/09/15 10:47:32;;;;;;;5.93;0.98;;;16.70;99.90;;;;;;5092917;28;20107;-58
2022/09/15 10:50:10;;;;;;;5.03;1.05;;;16.80;99.90;;;;;;5081424;28;20047;-58
2022/09/15 10:52:56;;;;;;;4.10;0.80;;;16.80;99.90;;;;;;5092181;28;20063;-59
2022/09/15 10:55:29;;;;;;;2.63;0.70;;;16.70;99.90;;;;;;5092554;28;20079;-58
2022/09/15 10:58:11;;;;;;;7.47;1.02;;;16.80;99.90;;;;;;5092425;28;20043;-58
2022/09/15 11:00:44;;;;;;;3.50;0.53;;;16.90;99.90;;;;;;5092533;28;20585;-58
2022/09/15 11:03:48;;;;;;;3.10;0.77;;;17.10;99.90;;;;;;5093308;28;20039;-58
2022/09/15 11:06:26;;;;;;;4.38;1.17;;;17.30;99.90;;;;;;5060919;28;20583;-58
2022/09/15 11:09:19;;;;;;;2.20;0.52;;;18.40;99.90;;;;;;5090787;28;21248;-58
2022/09/15 11:12:21;;;;;;;4.45;0.70;;;18.70;99.90;;;;;;5093010;28;20098;-58
2022/09/15 11:15:15;;;;;;;3.53;0.60;;;19.00;99.90;;;;;;5093009;28;20086;-58
2022/09/15 11:17:50;;;;;;;4.55;0.80;;;19.50;99.90;;;;;;5093240;28;20457;-58
2022/09/15 11:20:31;;;;;;;4.32;0.80;;;19.70;99.90;;;;;;5090470;28;20054;-58
2022/09/15 11:23:13;;;;;;;3.70;0.90;;;20.30;99.90;;;;;;5093403;28;20071;-58
2022/09/15 11:25:47;;;;;;;8.32;1.00;;;20.40;99.90;;;;;;5092003;28;20036;-58
2022/09/15 11:28:38;;;;;;;4.95;0.95;;;20.20;99.90;;;;;;5091339;28;20040;-58
2022/09/15 11:31:08;;;;;;;6.00;0.90;;;20.10;99.90;;;;;;5091736;27;20086;-58
2022/09/15 11:33:57;;;;;;;6.13;1.20;;;19.90;99.90;;;;;;5091695;28;20095;-58
2022/09/15 11:36:51;;;;;;;7.22;0.95;;;19.80;99.90;;;;;;5090513;28;20051;-58
2022/09/15 11:39:28;;;;;;;3.22;0.70;;;19.50;99.90;;;;;;5092138;28;20075;-58
2022/09/15 11:42:35;;;;;;;7.28;0.90;;;19.40;99.90;;;;;;5091106;28;20080;-58
2022/09/15 11:45:02;;;;;;;2.65;0.70;;;19.30;99.90;;;;;;5091573;28;20109;-58
2022/09/15 11:47:37;;;;;;;4.18;0.70;;;19.20;99.90;;;;;;5092755;28;20047;-58
2022/09/15 11:50:23;;;;;;;3.65;0.95;;;19.40;99.90;;;;;;5090985;28;20128;-57
2022/09/15 11:53:07;;;;;;;2.03;0.60;;;19.30;99.90;;;;;;5094174;27;20052;-58
2022/09/15 11:55:48;;;;;;;4.00;0.60;;;19.60;99.90;;;;;;5094637;27;20247;-58
2022/09/15 11:58:32;;;;;;;2.88;0.77;;;20.00;99.90;;;;;;5095150;28;20035;-58
2022/09/15 12:01:17;;;;;;;5.32;1.10;;;20.10;99.90;;;;;;5095967;28;20047;-58
2022/09/15 12:04:02;;;;;;;3.63;0.70;;;19.80;99.90;;;;;;5094849;27;20047;-58
2022/09/15 12:06:42;;;;;;;6.78;0.90;;;19.60;99.90;;;;;;5095371;27;20559;-58
2022/09/15 12:09:19;;;;;;;4.05;0.95;;;19.40;99.90;;;;;;5095220;28;20043;-58
2022/09/15 12:11:48;;;;;;;6.38;1.00;;;19.50;99.90;;;;;;5095420;27;20492;-59
2022/09/15 12:14:40;;;;;;;3.92;1.05;;;19.50;99.90;;;;;;5096125;27;20047;-58
2022/09/15 12:17:10;;;;;;;5.40;0.90;;;19.30;99.90;;;;;;5096853;27;20112;-58
2022/09/15 12:19:59;;;;;;;5.03;0.90;;;19.30;99.90;;;;;;5097051;27;20435;-57
2022/09/15 12:22:36;;;;;;;5.95;1.00;;;19.20;99.90;;;;;;5094114;27;20369;-57
2022/09/15 12:25:09;;;;;;;13.38;1.45;;;19.40;99.90;;;;;;5093248;27;20035;-58
2022/09/15 12:27:35;;;;;;;11.73;1.23;;;18.90;99.90;;;;;;5094333;27;20044;-62
2022/09/15 12:30:01;;;;;;;5.18;0.88;;;18.50;99.90;;;;;;5095142;27;20042;-62
2022/09/15 12:32:29;;;;;;;9.52;1.00;;;17.80;99.90;;;;;;5093377;27;20092;-62
2022/09/15 12:35:17;;;;;;;5.60;1.25;;;17.90;99.90;;;;;;5091384;27;20040;-61
2022/09/15 12:37:46;;;;;;;5.97;1.10;;;17.30;99.90;;;;;;5093902;27;20097;-62
2022/09/15 12:40:27;;;;;;;8.98;1.02;;;16.90;99.90;;;;;;5094646;27;20039;-62
2022/09/15 12:42:53;;;;;;;4.88;1.20;;;17.20;99.90;;;;;;5094897;27;20063;-62
2022/09/15 12:45:32;;;;;;;5.90;0.80;;;17.10;99.90;;;;;;5095097;27;20747;-62
2022/09/15 12:48:11;;;;;;;5.68;1.10;;;17.00;99.90;;;;;;5094735;27;20047;-63
2022/09/15 12:50:42;;;;;;;2.70;0.60;;;17.20;99.90;;;;;;5095121;28;20056;-62
2022/09/15 12:53:18;;;;;;;4.93;0.80;;;16.90;99.90;;;;;;5093749;27;20047;-62
2022/09/15 12:56:01;;;;;;;2.95;0.90;;;17.00;99.90;;;;;;5094396;27;20067;-62
2022/09/15 12:58:39;;;;;;;2.95;0.80;;;17.20;99.90;;;;;;5093154;28;20380;-61
2022/09/15 13:01:28;;;;;;;8.00;0.80;;;17.00;99.90;;;;;;5095201;27;20039;-63
2022/09/15 13:03:57;;;;;;;7.22;1.55;;;17.10;99.90;;;;;;5092978;27;20546;-62
2022/09/15 13:06:27;;;;;;;10.70;1.40;;;17.20;99.90;;;;;;5094484;27;20504;-62
2022/09/15 13:09:05;;;;;;;5.55;1.00;;;17.30;99.90;;;;;;5093368;27;20054;-62
2022/09/15 13:11:39;;;;;;;7.82;1.73;;;16.80;99.90;;;;;;5093865;27;20335;-62